Time;durP1;ratioP1;P1;durP2;ratioP2;P2;SDS_P1;SDS_P2;PMS_P1;PMS_P2;Temp;Humidity;BMP_temperature;BMP_pressure;BME280_temperature;BME280_humidity;BME280_pressure;Samples;Min_cycle;Max_cycle;Signal;HPM_P1;HPM_P2
2020/12/07 00:01:26;;;;;;;3.25;1.00;;;27.10;45.60;;;;;;5006267;28;20125;-80
2020/12/07 00:03:53;;;;;;;6.95;1.52;;;27.00;44.80;;;;;;5024010;28;20378;-77
2020/12/07 00:06:21;;;;;;;4.80;1.08;;;26.90;45.60;;;;;;5025935;28;20037;-81
2020/12/07 00:08:49;;;;;;;6.00;1.50;;;27.00;44.50;;;;;;5015089;28;20129;-79
2020/12/07 00:11:16;;;;;;;6.57;1.65;;;27.20;44.40;;;;;;5009974;28;20487;-78
2020/12/07 00:13:43;;;;;;;6.78;1.48;;;27.10;45.50;;;;;;5028132;28;20025;-80
2020/12/07 00:16:13;;;;;;;7.43;1.25;;;27.20;44.60;;;;;;5017708;28;20026;-81
2020/12/07 00:18:41;;;;;;;8.05;1.10;;;27.10;46.20;;;;;;5023164;28;20038;-84
2020/12/07 00:21:09;;;;;;;6.05;1.00;;;27.40;45.10;;;;;;5011002;28;20038;-83
2020/12/07 00:23:37;;;;;;;5.47;1.02;;;27.40;44.70;;;;;;4993318;28;20045;-83
2020/12/07 00:26:07;;;;;;;5.68;1.95;;;27.70;44.00;;;;;;5001752;28;20117;-82
2020/12/07 00:28:35;;;;;;;6.05;1.15;;;28.00;44.30;;;;;;5010716;28;20468;-83
2020/12/07 00:31:06;;;;;;;5.05;1.10;;;27.80;43.40;;;;;;5011698;28;20083;-82
2020/12/07 00:33:34;;;;;;;7.55;1.45;;;27.80;44.50;;;;;;5000115;28;20025;-85
2020/12/07 00:36:01;;;;;;;5.40;1.17;;;27.80;45.00;;;;;;5028465;28;20030;-82
2020/12/07 00:38:28;;;;;;;5.00;1.23;;;28.10;43.60;;;;;;5002445;28;20138;-82
2020/12/07 00:40:56;;;;;;;6.00;1.20;;;28.20;43.70;;;;;;5032703;23;20080;-81
2020/12/07 00:43:23;;;;;;;10.50;1.40;;;28.20;43.40;;;;;;5035949;23;20072;-77
2020/12/07 00:45:50;;;;;;;8.50;1.77;;;28.00;43.50;;;;;;5017483;23;20406;-77
2020/12/07 00:48:17;;;;;;;5.53;1.20;;;27.90;44.30;;;;;;5023170;23;20034;-80
2020/12/07 00:50:45;;;;;;;5.10;1.48;;;28.10;44.10;;;;;;5017346;28;20114;-79
2020/12/07 00:53:12;;;;;;;5.72;0.90;;;28.20;43.30;;;;;;5013503;28;20037;-78
2020/12/07 00:55:39;;;;;;;6.32;1.08;;;28.00;42.80;;;;;;5009489;28;20382;-79
2020/12/07 00:58:06;;;;;;;5.22;1.20;;;28.20;43.20;;;;;;5029166;23;20203;-78
2020/12/07 01:00:34;;;;;;;8.23;1.60;;;28.00;43.20;;;;;;5034374;28;20100;-77
2020/12/07 01:03:01;;;;;;;6.30;0.90;;;28.10;43.30;;;;;;5028350;28;20038;-76
2020/12/07 01:05:28;;;;;;;6.93;1.17;;;28.30;43.20;;;;;;5025531;28;20112;-79
2020/12/07 01:07:56;;;;;;;4.05;0.82;;;28.50;43.00;;;;;;5033134;28;20060;-82
2020/12/07 01:10:23;;;;;;;5.03;0.88;;;28.40;42.80;;;;;;5027474;28;20032;-81
2020/12/07 01:12:50;;;;;;;5.93;1.27;;;28.80;44.20;;;;;;5022914;28;20112;-80
2020/12/07 01:15:21;;;;;;;8.25;1.58;;;28.60;43.20;;;;;;5047286;23;20049;-77
2020/12/07 01:17:49;;;;;;;6.80;1.45;;;28.70;43.00;;;;;;5045407;28;20025;-83
2020/12/07 01:20:16;;;;;;;6.45;0.98;;;29.20;42.90;;;;;;5040610;28;20079;-78
2020/12/07 01:22:43;;;;;;;4.28;1.13;;;29.50;42.30;;;;;;5034596;28;20025;-79
2020/12/07 01:25:10;;;;;;;6.20;1.20;;;29.10;43.40;;;;;;5034017;28;20141;-76
2020/12/07 01:27:38;;;;;;;5.30;1.23;;;29.50;42.80;;;;;;5052296;28;20567;-77
2020/12/07 01:30:05;;;;;;;5.65;1.50;;;29.10;41.50;;;;;;5051181;28;20474;-81
2020/12/07 01:32:33;;;;;;;7.15;1.13;;;28.90;41.60;;;;;;5052485;28;20036;-81
2020/12/07 01:35:00;;;;;;;5.38;1.27;;;28.90;40.40;;;;;;5045474;28;20075;-81
2020/12/07 01:37:27;;;;;;;9.43;1.52;;;28.70;41.50;;;;;;5040147;28;20052;-79
2020/12/07 01:39:54;;;;;;;9.85;1.48;;;29.30;41.90;;;;;;5048675;28;20508;-82
2020/12/07 01:42:22;;;;;;;6.20;1.38;;;29.80;44.00;;;;;;5050643;28;20094;-83
2020/12/07 01:44:49;;;;;;;4.20;0.88;;;30.00;41.80;;;;;;5054248;28;20060;-75
2020/12/07 01:47:28;;;;;;;9.02;1.27;;;30.10;40.30;;;;;;5078695;23;20481;-78
2020/12/07 01:49:56;;;;;;;4.35;0.60;;;30.00;40.90;;;;;;5007074;28;20147;-77
2020/12/07 01:52:25;;;;;;;3.97;0.95;;;29.90;39.80;;;;;;5012951;28;20451;-76
2020/12/07 01:54:52;;;;;;;6.15;1.00;;;29.50;40.30;;;;;;5006687;28;20108;-78
2020/12/07 01:57:19;;;;;;;7.28;1.48;;;29.40;41.10;;;;;;5003161;28;20037;-77
2020/12/07 01:59:47;;;;;;;4.18;0.98;;;30.00;40.30;;;;;;5030520;28;20018;-78
2020/12/07 02:02:14;;;;;;;7.10;1.17;;;30.00;40.20;;;;;;5029266;28;20386;-77
2020/12/07 02:04:42;;;;;;;5.75;0.90;;;30.10;40.00;;;;;;5025459;28;20026;-76
2020/12/07 02:07:20;;;;;;;3.60;1.00;;;29.90;40.00;;;;;;5023867;28;20037;-78
2020/12/07 02:09:48;;;;;;;4.10;0.98;;;29.90;39.70;;;;;;5026111;28;20022;-76
2020/12/07 02:12:15;;;;;;;7.68;1.38;;;30.10;41.30;;;;;;5032311;28;20029;-75
2020/12/07 02:14:42;;;;;;;3.83;0.82;;;29.50;40.30;;;;;;5012337;28;20079;-81
2020/12/07 02:17:10;;;;;;;3.05;1.08;;;29.20;40.90;;;;;;5031989;28;20034;-79
2020/12/07 02:19:37;;;;;;;4.68;1.08;;;29.10;40.70;;;;;;5031317;28;20017;-77
2020/12/07 02:22:04;;;;;;;5.05;1.00;;;29.70;39.20;;;;;;5032208;28;20478;-78
2020/12/07 02:24:32;;;;;;;3.85;0.75;;;29.60;39.60;;;;;;5027398;28;20025;-78
2020/12/07 02:26:59;;;;;;;5.88;1.00;;;29.90;39.70;;;;;;5022027;28;20482;-77
2020/12/07 02:29:30;;;;;;;4.50;0.70;;;30.40;38.60;;;;;;5025805;28;20432;-77
2020/12/07 02:32:15;;;;;;;9.50;1.13;;;30.00;39.50;;;;;;5016734;28;20026;-78
2020/12/07 02:34:43;;;;;;;3.40;0.73;;;30.00;39.50;;;;;;5017176;28;20036;-76
2020/12/07 02:37:11;;;;;;;4.68;1.00;;;30.00;39.90;;;;;;5031991;28;20029;-77
2020/12/07 02:39:38;;;;;;;3.28;0.50;;;29.90;40.00;;;;;;5024437;28;20022;-79
2020/12/07 02:42:06;;;;;;;5.65;0.85;;;29.80;39.40;;;;;;5029112;28;20067;-78
2020/12/07 02:44:33;;;;;;;6.78;0.80;;;30.20;39.60;;;;;;5030859;28;20360;-76
2020/12/07 02:47:01;;;;;;;3.85;0.73;;;30.30;39.70;;;;;;5032147;28;20037;-75
2020/12/07 02:49:28;;;;;;;4.18;0.80;;;29.90;39.70;;;;;;5070347;22;20134;-77
2020/12/07 02:51:55;;;;;;;4.22;1.13;;;29.90;39.10;;;;;;5066623;22;20068;-77
2020/12/07 02:54:22;;;;;;;14.43;2.60;;;30.20;39.50;;;;;;5047467;28;20025;-78
2020/12/07 02:56:50;;;;;;;3.53;0.80;;;30.60;40.00;;;;;;5052184;22;20064;-78
2020/12/07 02:59:17;;;;;;;2.72;0.50;;;30.60;38.60;;;;;;5028755;28;20036;-78
2020/12/07 03:01:44;;;;;;;4.97;1.02;;;30.40;38.90;;;;;;5031678;28;20092;-79
2020/12/07 03:04:12;;;;;;;4.07;0.70;;;30.30;38.40;;;;;;5026503;28;20048;-77
2020/12/07 03:06:39;;;;;;;5.10;0.70;;;30.40;38.00;;;;;;5052703;23;20049;-76
2020/12/07 03:09:06;;;;;;;6.35;0.60;;;30.40;38.60;;;;;;5031881;28;20043;-79
2020/12/07 03:11:34;;;;;;;4.97;0.80;;;30.40;37.90;;;;;;5051250;28;20088;-76
2020/12/07 03:14:01;;;;;;;5.15;0.93;;;30.20;38.00;;;;;;5046962;28;20104;-78
2020/12/07 03:16:28;;;;;;;6.63;1.10;;;30.30;37.90;;;;;;5033389;28;20021;-77
2020/12/07 03:18:55;;;;;;;6.68;1.00;;;30.40;38.70;;;;;;5024360;28;20420;-77
2020/12/07 03:21:23;;;;;;;6.13;0.68;;;29.80;39.00;;;;;;5031501;28;20152;-79
2020/12/07 03:23:50;;;;;;;4.75;0.60;;;30.00;38.90;;;;;;5061269;23;20045;-77
2020/12/07 03:26:17;;;;;;;6.68;0.70;;;30.00;38.60;;;;;;5052296;28;20035;-77
2020/12/07 03:28:44;;;;;;;7.35;1.35;;;30.20;38.20;;;;;;5044786;28;20497;-78
2020/12/07 03:31:12;;;;;;;5.22;0.75;;;30.40;38.80;;;;;;5042457;28;20510;-79
2020/12/07 03:33:39;;;;;;;7.50;0.90;;;30.20;38.10;;;;;;5038302;28;20434;-78
2020/12/07 03:36:06;;;;;;;4.10;0.80;;;30.20;38.10;;;;;;5036308;28;20128;-80
2020/12/07 03:38:34;;;;;;;1.73;0.43;;;30.20;37.60;;;;;;5027849;28;20417;-79
2020/12/07 03:41:01;;;;;;;4.88;1.00;;;30.70;37.70;;;;;;5038901;28;20059;-79
2020/12/07 03:43:28;;;;;;;5.13;0.80;;;30.40;37.60;;;;;;5039639;28;20100;-79
2020/12/07 03:45:58;;;;;;;4.18;0.70;;;30.30;37.30;;;;;;5045431;28;20055;-78
2020/12/07 03:48:25;;;;;;;6.28;0.70;;;30.20;37.70;;;;;;5027298;28;20043;-76
2020/12/07 03:50:53;;;;;;;3.13;0.60;;;30.10;37.40;;;;;;5018369;28;20482;-77
2020/12/07 03:53:20;;;;;;;4.60;0.60;;;30.00;38.20;;;;;;5034404;28;20104;-77
2020/12/07 03:55:47;;;;;;;3.33;0.80;;;29.90;38.20;;;;;;5055603;23;20099;-77
2020/12/07 03:58:14;;;;;;;5.07;0.50;;;29.80;37.70;;;;;;5035088;28;20045;-77
2020/12/07 04:00:42;;;;;;;5.78;0.75;;;29.90;38.20;;;;;;5028636;28;20384;-80
2020/12/07 04:03:12;;;;;;;6.05;0.90;;;29.80;38.20;;;;;;5027535;28;20503;-78
2020/12/07 04:05:41;;;;;;;4.43;0.65;;;29.70;38.90;;;;;;5010755;28;20025;-77
2020/12/07 04:08:09;;;;;;;5.28;0.85;;;29.70;39.00;;;;;;5028856;28;20042;-78
2020/12/07 04:10:40;;;;;;;4.80;0.80;;;29.80;39.60;;;;;;5030133;28;20021;-78
2020/12/07 04:13:08;;;;;;;4.40;0.93;;;29.70;37.40;;;;;;5034637;28;20105;-76
2020/12/07 04:15:35;;;;;;;3.80;0.55;;;29.90;39.70;;;;;;5011305;28;20030;-76
2020/12/07 04:18:02;;;;;;;4.43;0.43;;;29.90;37.50;;;;;;5033433;28;20067;-78
2020/12/07 04:20:30;;;;;;;7.82;0.60;;;29.80;38.00;;;;;;5028156;28;20124;-77
2020/12/07 04:22:57;;;;;;;4.13;0.57;;;29.70;38.70;;;;;;5033950;28;20462;-76
2020/12/07 04:25:25;;;;;;;3.97;0.70;;;29.60;38.30;;;;;;5011252;28;20098;-78
2020/12/07 04:27:52;;;;;;;2.92;0.50;;;29.90;38.20;;;;;;5010865;28;20033;-82
2020/12/07 04:30:20;;;;;;;3.13;0.52;;;29.70;38.50;;;;;;5036716;28;20025;-81
2020/12/07 04:32:47;;;;;;;5.25;0.60;;;29.70;39.00;;;;;;5028956;28;20033;-80
2020/12/07 04:35:14;;;;;;;3.72;0.70;;;29.80;38.50;;;;;;5031262;28;20025;-80
2020/12/07 04:37:42;;;;;;;3.72;0.68;;;29.60;38.80;;;;;;5025697;28;20079;-81
2020/12/07 04:40:09;;;;;;;3.15;0.68;;;29.40;37.60;;;;;;5036521;28;20029;-81
2020/12/07 04:42:39;;;;;;;3.47;0.60;;;29.30;38.60;;;;;;5029592;28;20032;-80
2020/12/07 04:45:07;;;;;;;2.70;0.60;;;29.60;39.20;;;;;;5017773;28;20481;-79
2020/12/07 04:47:37;;;;;;;5.05;0.75;;;29.60;39.00;;;;;;5029336;28;20064;-84
2020/12/07 04:50:07;;;;;;;2.08;0.52;;;29.70;39.00;;;;;;5038772;28;20032;-83
2020/12/07 04:52:35;;;;;;;3.33;0.57;;;29.60;38.10;;;;;;5027989;28;20159;-83
2020/12/07 04:55:05;;;;;;;2.20;0.57;;;29.50;38.60;;;;;;5033297;23;20126;-81
2020/12/07 04:57:37;;;;;;;4.00;0.50;;;29.50;38.30;;;;;;5022113;23;20052;-84
2020/12/07 05:00:06;;;;;;;3.55;0.52;;;29.70;39.10;;;;;;4935852;23;2912974;-83
2020/12/07 05:05:07;;;;;;;5.60;0.68;;;29.60;38.30;;;;;;5038582;23;20049;-81
2020/12/07 05:07:35;;;;;;;3.85;0.80;;;29.70;39.10;;;;;;5042909;28;20082;-80
2020/12/07 05:10:12;;;;;;;5.57;0.85;;;29.80;39.60;;;;;;5020094;28;20033;-76
2020/12/07 05:12:45;;;;;;;2.40;0.32;;;29.90;38.30;;;;;;5021917;23;20427;-78
2020/12/07 05:15:15;;;;;;;4.32;0.85;;;29.70;38.40;;;;;;5023624;28;20067;-80
2020/12/07 05:17:44;;;;;;;2.63;0.60;;;29.70;38.40;;;;;;5039545;28;20026;-78
2020/12/07 05:20:12;;;;;;;3.03;0.40;;;29.70;38.70;;;;;;5030779;28;20040;-75
2020/12/07 05:22:42;;;;;;;5.38;0.80;;;29.70;38.00;;;;;;5026227;28;20025;-80
2020/12/07 05:25:10;;;;;;;6.70;0.70;;;29.60;38.70;;;;;;5019121;28;20033;-81
2020/12/07 05:27:43;;;;;;;6.53;0.98;;;29.80;39.30;;;;;;5044750;22;20043;31
2020/12/07 05:30:23;;;;;;;4.35;0.70;;;29.90;39.40;;;;;;5045382;28;20044;-82
2020/12/07 05:32:54;;;;;;;3.72;0.70;;;29.90;39.30;;;;;;5026828;28;20125;-89
2020/12/07 05:35:21;;;;;;;3.38;0.38;;;29.80;39.20;;;;;;5045220;28;20033;-86
2020/12/07 05:37:48;;;;;;;5.00;0.60;;;29.80;38.70;;;;;;5053461;28;20492;-79
2020/12/07 05:40:16;;;;;;;5.53;0.50;;;29.80;38.60;;;;;;5061628;28;20120;-82
2020/12/07 05:42:43;;;;;;;4.25;0.85;;;29.70;38.20;;;;;;5066077;28;20028;-85
2020/12/07 05:45:11;;;;;;;4.70;0.75;;;29.60;39.30;;;;;;5060363;28;20029;-83
2020/12/07 05:47:40;;;;;;;4.57;0.70;;;29.80;39.00;;;;;;5057585;28;20097;-84
2020/12/07 05:50:09;;;;;;;5.00;1.48;;;29.70;38.80;;;;;;5049568;28;20021;-84
2020/12/07 05:53:05;;;;;;;4.90;0.50;;;29.80;38.60;;;;;;5044773;28;20099;-82
2020/12/07 05:55:33;;;;;;;6.97;0.68;;;29.70;38.90;;;;;;5063545;28;20077;-88
2020/12/07 05:58:11;;;;;;;6.45;0.88;;;29.70;39.40;;;;;;5045902;28;20033;-87
2020/12/07 06:00:39;;;;;;;5.10;0.90;;;29.80;39.70;;;;;;5069996;28;20017;-89
2020/12/07 06:03:07;;;;;;;5.18;1.00;;;29.50;39.20;;;;;;5042740;23;20100;-87
2020/12/07 06:05:34;;;;;;;4.97;0.60;;;29.40;38.50;;;;;;5036391;28;20029;-87
2020/12/07 06:08:12;;;;;;;4.10;0.43;;;29.50;39.40;;;;;;5030433;28;20090;-86
2020/12/07 06:10:48;;;;;;;3.03;0.77;;;29.80;40.10;;;;;;5031475;28;20075;-85
2020/12/07 06:13:20;;;;;;;4.50;0.90;;;29.70;39.80;;;;;;5032334;28;20056;-85
2020/12/07 06:15:49;;;;;;;6.15;1.02;;;29.80;40.00;;;;;;5030977;28;20030;-81
2020/12/07 06:18:30;;;;;;;4.13;0.65;;;29.80;39.70;;;;;;5031974;28;20048;-86
2020/12/07 06:21:17;;;;;;;6.13;0.50;;;29.80;40.40;;;;;;5013194;28;20109;-86
2020/12/07 06:23:49;;;;;;;4.60;0.60;;;29.80;39.30;;;;;;5013378;28;20128;-79
2020/12/07 06:26:19;;;;;;;3.00;0.50;;;29.70;39.20;;;;;;5027600;28;20112;-77
2020/12/07 06:28:48;;;;;;;3.47;0.70;;;29.60;38.70;;;;;;5028810;28;20034;-80
2020/12/07 06:31:20;;;;;;;3.72;0.95;;;29.40;39.20;;;;;;5027735;28;20461;-76
2020/12/07 06:33:50;;;;;;;3.58;0.43;;;29.20;39.50;;;;;;5016849;28;20021;-83
2020/12/07 06:36:39;;;;;;;3.30;0.47;;;29.20;40.10;;;;;;5031364;28;20052;-81
2020/12/07 06:39:09;;;;;;;5.88;1.08;;;29.20;38.70;;;;;;5030369;28;20029;-86
2020/12/07 06:41:47;;;;;;;4.85;0.63;;;29.10;39.10;;;;;;5032681;28;20044;-83
2020/12/07 06:44:19;;;;;;;2.50;0.73;;;29.10;39.40;;;;;;5029643;28;20074;-83
2020/12/07 06:49:55;;;;;;;4.68;1.35;;;29.00;40.30;;;;;;5024051;28;20053;-86
2020/12/07 06:52:25;;;;;;;2.90;0.55;;;29.00;39.90;;;;;;5029087;28;20171;-87
2020/12/07 06:55:14;;;;;;;4.22;1.25;;;29.00;41.10;;;;;;5020336;28;20037;-86
2020/12/07 06:57:52;;;;;;;1.70;0.60;;;29.00;39.70;;;;;;5027041;28;20041;-86
2020/12/07 07:00:22;;;;;;;2.97;0.60;;;29.00;40.80;;;;;;5022982;28;20044;-85
2020/12/07 07:02:57;;;;;;;3.03;0.82;;;28.90;39.30;;;;;;5045228;23;20064;-88
2020/12/07 07:05:27;;;;;;;3.83;0.57;;;28.90;38.50;;;;;;5040421;23;20042;-89
2020/12/07 07:07:55;;;;;;;1.60;0.43;;;28.90;39.00;;;;;;4988791;28;20038;-89
2020/12/07 07:10:23;;;;;;;2.97;0.60;;;28.80;39.10;;;;;;4995865;23;20052;-88
2020/12/07 07:12:51;;;;;;;2.67;0.65;;;28.90;39.50;;;;;;5018352;28;20022;-91
2020/12/07 07:15:19;;;;;;;3.13;0.75;;;29.00;39.60;;;;;;4998630;28;20022;-87
2020/12/07 07:17:47;;;;;;;4.22;0.73;;;28.80;38.50;;;;;;5021649;28;20017;-85
2020/12/07 07:20:16;;;;;;;1.92;0.32;;;28.70;39.60;;;;;;5040239;23;20073;-80
2020/12/07 07:22:48;;;;;;;7.78;0.90;;;28.50;38.90;;;;;;5039859;28;20024;-81
2020/12/07 07:30:30;;;;;;;5.25;0.98;;;28.30;41.50;;;;;;5042340;28;20385;-81
2020/12/07 07:32:57;;;;;;;4.63;0.50;;;28.40;40.80;;;;;;5040007;28;20025;-80
2020/12/07 07:35:32;;;;;;;6.18;0.60;;;28.20;39.80;;;;;;5052543;23;20067;-83
2020/12/07 07:38:00;;;;;;;4.18;0.90;;;28.10;40.30;;;;;;5009861;28;20106;-82
2020/12/07 07:40:29;;;;;;;2.90;0.30;;;28.10;41.00;;;;;;5029059;28;20029;-80
2020/12/07 07:43:02;;;;;;;3.65;0.75;;;28.00;39.60;;;;;;5030887;28;20510;-80
2020/12/07 07:45:37;;;;;;;4.47;0.60;;;27.80;39.20;;;;;;5028343;28;20049;-80
2020/12/07 07:48:21;;;;;;;1.58;0.40;;;27.80;39.40;;;;;;5028539;28;20409;-78
2020/12/07 08:16:16;;;;;;;3.55;0.57;;;27.00;41.00;;;;;;5003282;28;20053;-79
2020/12/07 08:18:44;;;;;;;3.58;0.45;;;26.90;41.20;;;;;;4982029;28;20033;-78
2020/12/07 08:21:14;;;;;;;3.95;0.90;;;26.90;41.00;;;;;;5015270;28;20116;-79
2020/12/07 08:23:43;;;;;;;3.13;0.80;;;26.90;40.90;;;;;;5013014;28;20030;-78
2020/12/07 08:26:19;;;;;;;2.72;0.32;;;26.80;41.30;;;;;;5016224;28;20556;-78
2020/12/07 08:28:53;;;;;;;7.00;0.95;;;26.80;41.10;;;;;;5013807;28;20120;-78
2020/12/07 08:31:22;;;;;;;2.45;0.63;;;26.80;41.00;;;;;;5030384;28;20053;-77
2020/12/07 08:34:06;;;;;;;3.80;0.70;;;26.70;41.10;;;;;;5023796;28;20018;-80
2020/12/07 08:36:33;;;;;;;;;;;26.70;40.70;;;;;;5027118;28;20499;-79
2020/12/07 08:39:01;;;;;;;3.20;0.52;;;26.60;41.10;;;;;;5017152;28;19917;-78
2020/12/07 08:41:33;;;;;;;3.92;0.90;;;26.60;41.60;;;;;;5030778;28;20080;-78
2020/12/07 08:44:07;;;;;;;3.50;0.47;;;26.50;41.20;;;;;;5019299;28;20018;-79
2020/12/07 08:46:38;;;;;;;2.28;0.40;;;26.50;41.50;;;;;;5031019;28;20080;-79
2020/12/07 08:49:07;;;;;;;3.25;0.93;;;26.50;42.00;;;;;;5014121;28;20534;-78
2020/12/07 08:51:35;;;;;;;2.45;0.55;;;26.30;42.20;;;;;;4998205;28;20663;-79
2020/12/07 08:54:03;;;;;;;2.78;0.65;;;26.30;41.90;;;;;;5018437;28;20085;-77
2020/12/07 08:56:30;;;;;;;3.78;0.50;;;26.30;42.20;;;;;;5019600;28;20127;-77
2020/12/07 08:58:58;;;;;;;4.32;0.80;;;26.20;42.50;;;;;;5023243;28;20024;-78
2020/12/07 09:01:25;;;;;;;6.50;0.90;;;26.20;42.60;;;;;;5007536;28;20438;-77
2020/12/07 09:03:52;;;;;;;3.90;0.85;;;26.10;42.70;;;;;;5024009;28;20155;-78
2020/12/07 09:06:21;;;;;;;6.15;1.02;;;26.10;42.50;;;;;;5034008;28;20544;-79
2020/12/07 09:08:49;;;;;;;3.08;0.60;;;26.10;42.70;;;;;;5021679;28;20563;-80
2020/12/07 09:11:18;;;;;;;2.85;0.47;;;26.10;42.50;;;;;;5040990;23;20037;-78
2020/12/07 09:13:46;;;;;;;3.03;0.65;;;26.00;42.50;;;;;;5047602;23;20497;-76
2020/12/07 09:16:14;;;;;;;3.08;0.70;;;26.00;42.60;;;;;;5032834;28;20017;-78
2020/12/07 09:18:41;;;;;;;2.00;0.50;;;25.90;42.70;;;;;;5048313;23;20061;-77
2020/12/07 09:21:10;;;;;;;5.45;1.00;;;25.80;42.50;;;;;;5033630;28;20029;-77
2020/12/07 09:23:37;;;;;;;5.22;1.00;;;25.80;42.50;;;;;;5036485;28;21612;-77
2020/12/07 09:26:07;;;;;;;2.72;0.68;;;25.80;42.60;;;;;;5046325;28;20034;-77
2020/12/07 09:28:37;;;;;;;3.15;0.85;;;25.70;42.30;;;;;;5028503;23;20050;-76
2020/12/07 09:31:06;;;;;;;3.08;0.63;;;25.70;42.20;;;;;;5011513;28;20130;-77
2020/12/07 09:33:34;;;;;;;3.13;0.60;;;25.70;42.00;;;;;;5010785;28;20026;-78
2020/12/07 09:36:02;;;;;;;2.08;0.40;;;25.70;42.20;;;;;;5011077;28;20579;-80
2020/12/07 09:38:30;;;;;;;2.45;0.25;;;25.60;42.00;;;;;;5018950;28;20613;-78
2020/12/07 09:40:58;;;;;;;4.28;0.80;;;25.50;43.10;;;;;;5017491;28;20030;-78
2020/12/07 09:43:26;;;;;;;5.15;0.65;;;25.40;42.60;;;;;;5023523;23;20433;-77
2020/12/07 09:45:53;;;;;;;1.98;0.38;;;25.40;42.50;;;;;;5016293;28;20049;-77
2020/12/07 09:48:21;;;;;;;2.00;0.32;;;25.30;42.70;;;;;;5017454;28;20406;-78
2020/12/07 09:50:48;;;;;;;3.55;0.40;;;25.30;42.70;;;;;;5014030;28;20024;-78
2020/12/07 09:53:18;;;;;;;4.05;0.80;;;25.20;42.70;;;;;;5014648;28;20049;-79
2020/12/07 09:55:46;;;;;;;2.63;0.80;;;25.10;42.60;;;;;;5016195;28;20088;-78
2020/12/07 09:58:14;;;;;;;2.97;0.50;;;25.10;43.00;;;;;;5029878;28;20022;-80
2020/12/07 10:00:41;;;;;;;4.53;0.40;;;25.00;43.00;;;;;;5014003;28;20052;-78
2020/12/07 10:03:09;;;;;;;5.22;0.45;;;25.00;43.00;;;;;;5014841;28;20026;-78
2020/12/07 10:05:37;;;;;;;3.60;0.43;;;25.00;42.60;;;;;;5014929;28;20030;-77
2020/12/07 10:08:04;;;;;;;5.93;0.45;;;25.00;42.90;;;;;;5028481;28;20060;-79
2020/12/07 10:10:32;;;;;;;3.50;0.40;;;24.90;43.00;;;;;;4999769;28;20032;-80
2020/12/07 10:12:59;;;;;;;3.88;0.63;;;24.90;43.00;;;;;;4997218;28;20574;-79
2020/12/07 10:15:26;;;;;;;3.42;0.65;;;24.80;42.90;;;;;;5013670;28;20029;-80
2020/12/07 10:17:54;;;;;;;1.77;0.25;;;24.80;43.00;;;;;;5020163;23;20058;-80
2020/12/07 10:20:21;;;;;;;3.88;0.68;;;24.80;43.00;;;;;;5029123;28;20028;-78
2020/12/07 10:22:48;;;;;;;2.78;0.75;;;24.80;42.90;;;;;;5017238;28;20386;-83
2020/12/07 10:25:15;;;;;;;7.43;1.05;;;24.70;43.00;;;;;;5013391;28;20026;-82
2020/12/07 10:27:42;;;;;;;2.78;0.63;;;24.70;43.20;;;;;;5017355;28;20064;-80
2020/12/07 10:30:10;;;;;;;2.60;0.57;;;24.70;43.30;;;;;;5006546;28;20060;-81
2020/12/07 10:32:37;;;;;;;2.78;0.57;;;24.60;43.60;;;;;;5001254;28;20030;-81
2020/12/07 10:35:04;;;;;;;4.10;0.57;;;24.50;43.50;;;;;;5015373;28;20051;-81
2020/12/07 10:37:32;;;;;;;6.65;0.63;;;24.50;44.30;;;;;;5012507;28;20018;-81
2020/12/07 10:39:59;;;;;;;3.35;0.60;;;24.50;43.70;;;;;;5022784;28;20079;-82
2020/12/07 10:42:26;;;;;;;5.28;1.10;;;24.40;43.70;;;;;;5030937;28;20013;-82
2020/12/07 10:44:54;;;;;;;3.53;0.52;;;24.40;43.80;;;;;;4998020;28;20049;-81
2020/12/07 10:47:21;;;;;;;1.85;0.50;;;24.30;43.80;;;;;;5022626;28;20033;-81
2020/12/07 10:49:48;;;;;;;4.53;1.13;;;24.30;43.70;;;;;;5016442;28;20029;-81
2020/12/07 10:52:15;;;;;;;1.98;0.40;;;24.20;44.10;;;;;;5030414;28;20061;-81
2020/12/07 10:54:43;;;;;;;8.10;0.85;;;24.10;44.10;;;;;;5018220;28;20030;-81
2020/12/07 10:57:10;;;;;;;2.90;0.60;;;24.10;44.20;;;;;;5012994;28;20026;-81
2020/12/07 10:59:37;;;;;;;4.10;0.70;;;24.10;44.20;;;;;;5012938;28;20030;-81
2020/12/07 11:02:04;;;;;;;5.45;0.90;;;24.10;44.30;;;;;;5012692;28;20044;-81
2020/12/07 11:04:32;;;;;;;4.10;0.60;;;24.00;45.20;;;;;;5024148;28;20025;-82
2020/12/07 11:07:02;;;;;;;3.47;0.80;;;23.90;44.90;;;;;;5030616;28;20134;-82
2020/12/07 11:09:29;;;;;;;2.55;0.80;;;23.80;45.50;;;;;;5023357;28;20065;-82
2020/12/07 11:12:02;;;;;;;6.13;0.80;;;23.80;45.80;;;;;;5016525;28;20037;-82
2020/12/07 11:14:29;;;;;;;2.40;0.70;;;23.70;45.50;;;;;;5023813;28;20540;-81
2020/12/07 11:16:59;;;;;;;5.72;0.73;;;23.70;45.90;;;;;;5030921;23;20050;-80
2020/12/07 11:19:26;;;;;;;3.20;1.25;;;23.70;45.80;;;;;;5024790;23;20466;-82
2020/12/07 11:21:53;;;;;;;3.85;0.52;;;23.60;45.90;;;;;;5043186;23;20058;-82
2020/12/07 11:24:21;;;;;;;2.47;0.50;;;23.60;46.30;;;;;;5031593;28;20030;-81
2020/12/07 11:26:48;;;;;;;5.97;0.73;;;23.50;45.80;;;;;;5047971;23;20057;-82
2020/12/07 11:29:16;;;;;;;3.95;0.57;;;23.50;46.10;;;;;;5013658;28;20121;-81
2020/12/07 11:31:47;;;;;;;3.38;0.50;;;23.40;46.10;;;;;;5027293;28;20092;-81
2020/12/07 11:34:19;;;;;;;4.20;0.52;;;23.40;45.90;;;;;;5047072;23;20498;-81
2020/12/07 11:36:51;;;;;;;4.15;0.70;;;23.40;46.20;;;;;;5030589;28;20022;-81
2020/12/07 11:42:05;;;;;;;1.98;0.40;;;23.30;46.50;;;;;;5032095;28;20025;-82
2020/12/07 11:44:34;;;;;;;4.93;0.40;;;23.30;46.60;;;;;;5018189;28;20051;-81
2020/12/07 11:47:05;;;;;;;2.95;0.50;;;23.20;46.80;;;;;;5031154;28;20017;-81
2020/12/07 11:49:32;;;;;;;5.75;1.20;;;23.10;47.00;;;;;;5031258;28;20099;-81
2020/12/07 11:52:04;;;;;;;4.50;0.85;;;23.00;47.00;;;;;;5017832;23;20065;-82
2020/12/07 11:54:31;;;;;;;3.65;0.60;;;23.00;47.30;;;;;;5010664;28;20061;-82
2020/12/07 11:57:04;;;;;;;3.00;0.40;;;23.00;46.90;;;;;;4991607;28;20376;-82
2020/12/07 11:59:31;;;;;;;3.78;0.60;;;22.90;46.90;;;;;;5011794;28;20022;-82
2020/12/07 12:01:58;;;;;;;4.60;0.93;;;22.80;47.00;;;;;;5012068;28;20064;-82
2020/12/07 12:04:26;;;;;;;4.90;0.65;;;22.80;47.00;;;;;;5011564;28;20049;-82
2020/12/07 12:06:53;;;;;;;5.13;0.70;;;22.80;47.10;;;;;;4991357;28;20034;-82
2020/12/07 12:09:20;;;;;;;4.78;0.77;;;22.80;48.00;;;;;;5009551;28;20034;-82
2020/12/07 12:11:47;;;;;;;6.97;0.82;;;22.80;49.00;;;;;;5012085;28;20072;-82
2020/12/07 12:14:15;;;;;;;5.68;1.35;;;22.70;48.40;;;;;;5010879;28;20112;-83
2020/12/07 12:16:42;;;;;;;4.90;1.10;;;22.50;49.50;;;;;;5011839;28;20041;-82
2020/12/07 12:19:12;;;;;;;4.72;0.98;;;22.70;48.90;;;;;;5011502;28;20018;-82
2020/12/07 12:21:42;;;;;;;3.95;0.68;;;22.60;48.00;;;;;;5011303;28;20368;-82
2020/12/07 12:24:09;;;;;;;5.10;1.05;;;22.60;47.90;;;;;;5041694;23;20053;-82
2020/12/07 12:26:39;;;;;;;7.50;1.35;;;22.70;47.90;;;;;;5040027;28;20061;-82
2020/12/07 12:29:07;;;;;;;3.63;0.85;;;22.70;47.70;;;;;;5023594;28;20410;-82
2020/12/07 12:31:35;;;;;;;2.72;0.50;;;22.50;48.10;;;;;;5052037;28;20068;-82
2020/12/07 12:34:02;;;;;;;3.55;0.65;;;22.50;48.20;;;;;;5055019;28;20080;-81
2020/12/07 12:36:30;;;;;;;4.45;0.60;;;22.50;48.20;;;;;;5054100;28;20021;-81
2020/12/07 12:38:58;;;;;;;3.25;0.98;;;22.40;48.40;;;;;;5054469;28;20052;-81
2020/12/07 12:41:26;;;;;;;5.63;0.77;;;22.40;48.30;;;;;;5055149;28;20031;-81
2020/12/07 12:43:54;;;;;;;3.88;0.65;;;22.30;48.30;;;;;;5054591;28;20523;-81
2020/12/07 12:46:21;;;;;;;4.88;0.77;;;22.30;48.20;;;;;;5052839;28;20033;-81
2020/12/07 12:48:49;;;;;;;4.15;0.77;;;22.30;48.30;;;;;;5057635;28;20525;-81
2020/12/07 12:51:16;;;;;;;4.85;0.80;;;22.30;48.50;;;;;;5054465;28;20051;-81
2020/12/07 12:53:43;;;;;;;3.85;0.85;;;22.20;48.90;;;;;;5054010;28;20025;-81
2020/12/07 12:56:11;;;;;;;6.18;0.80;;;22.20;48.80;;;;;;5053816;28;20021;-81
2020/12/07 12:58:39;;;;;;;6.00;1.27;;;22.20;48.90;;;;;;5054419;28;20114;-81
2020/12/07 13:01:07;;;;;;;5.20;0.80;;;22.20;48.90;;;;;;5054087;28;20083;-81
2020/12/07 13:03:35;;;;;;;5.15;0.77;;;22.10;49.10;;;;;;5053685;28;20516;-81
2020/12/07 13:06:03;;;;;;;1.92;0.40;;;22.20;49.20;;;;;;5053777;28;20033;-81
2020/12/07 13:08:30;;;;;;;2.83;0.63;;;22.30;49.10;;;;;;5054187;28;20123;-80
2020/12/07 13:10:57;;;;;;;5.93;0.60;;;22.30;49.40;;;;;;5054207;28;20029;-79
2020/12/07 13:13:24;;;;;;;6.78;0.98;;;22.10;49.70;;;;;;5053450;28;20021;-82
2020/12/07 13:18:20;;;;;;;5.78;0.30;;;20.80;55.10;;;;;;5054036;28;20397;-81
2020/12/07 13:20:56;;;;;;;1.13;0.10;;;20.50;56.10;;;;;;5034230;28;20057;-85
2020/12/07 13:23:31;;;;;;;1.77;0.22;;;20.40;56.50;;;;;;5053630;28;20107;-81
2020/12/07 13:28:59;;;;;;;2.45;0.20;;;20.00;57.80;;;;;;5029268;23;20079;-83
2020/12/07 13:31:27;;;;;;;1.85;0.20;;;19.90;58.40;;;;;;5012029;28;20030;-82
2020/12/07 13:33:54;;;;;;;0.65;0.08;;;19.70;59.10;;;;;;5062464;23;20064;-80
2020/12/07 13:36:21;;;;;;;3.35;0.32;;;19.60;59.80;;;;;;5034783;28;20021;-81
2020/12/07 13:38:49;;;;;;;2.08;0.10;;;19.50;60.00;;;;;;5053186;28;20391;-83
2020/12/07 13:41:16;;;;;;;0.57;0.00;;;19.30;60.70;;;;;;5067135;23;20200;-81